sensor_id;sensor_type;location;lat;lon;timestamp;P1;durP1;ratioP1;P2;durP2;ratioP2
3875;SDS011;1953;51.222;6.624;2023-03-23T00:04:35;7.70;;;3.60;;
3875;SDS011;1953;51.222;6.624;2023-03-23T00:10:21;5.03;;;3.33;;
3875;SDS011;1953;51.222;6.624;2023-03-23T00:15:06;5.47;;;4.00;;
3875;SDS011;1953;51.222;6.624;2023-03-23T00:19:53;6.50;;;3.87;;
3875;SDS011;1953;51.222;6.624;2023-03-23T00:24:36;3.57;;;3.27;;
3875;SDS011;1953;51.222;6.624;2023-03-23T00:29:20;6.83;;;3.77;;
3875;SDS011;1953;51.222;6.624;2023-03-23T00:34:04;5.67;;;4.47;;
3875;SDS011;1953;51.222;6.624;2023-03-23T00:38:46;5.20;;;3.67;;
3875;SDS011;1953;51.222;6.624;2023-03-23T00:43:29;6.33;;;4.23;;
3875;SDS011;1953;51.222;6.624;2023-03-23T00:48:14;6.57;;;4.37;;
3875;SDS011;1953;51.222;6.624;2023-03-23T00:52:57;4.93;;;3.87;;
3875;SDS011;1953;51.222;6.624;2023-03-23T00:57:39;13.60;;;4.87;;
3875;SDS011;1953;51.222;6.624;2023-03-23T01:02:21;8.90;;;4.20;;
3875;SDS011;1953;51.222;6.624;2023-03-23T01:07:06;6.40;;;3.70;;
3875;SDS011;1953;51.222;6.624;2023-03-23T01:11:53;4.53;;;3.17;;
3875;SDS011;1953;51.222;6.624;2023-03-23T01:16:37;4.70;;;4.20;;
3875;SDS011;1953;51.222;6.624;2023-03-23T01:21:19;4.90;;;3.60;;
3875;SDS011;1953;51.222;6.624;2023-03-23T01:26:04;4.70;;;3.60;;
3875;SDS011;1953;51.222;6.624;2023-03-23T01:30:47;4.23;;;3.83;;
3875;SDS011;1953;51.222;6.624;2023-03-23T01:35:30;5.40;;;4.03;;
3875;SDS011;1953;51.222;6.624;2023-03-23T01:40:13;8.70;;;4.17;;
3875;SDS011;1953;51.222;6.624;2023-03-23T01:45:17;6.10;;;4.40;;
3875;SDS011;1953;51.222;6.624;2023-03-23T01:50:04;6.57;;;4.70;;
3875;SDS011;1953;51.222;6.624;2023-03-23T01:54:48;5.60;;;4.43;;
3875;SDS011;1953;51.222;6.624;2023-03-23T01:59:33;4.33;;;3.90;;
3875;SDS011;1953;51.222;6.624;2023-03-23T02:04:18;5.23;;;4.67;;
3875;SDS011;1953;51.222;6.624;2023-03-23T02:09:02;7.40;;;4.77;;
3875;SDS011;1953;51.222;6.624;2023-03-23T02:13:46;8.07;;;4.93;;
3875;SDS011;1953;51.222;6.624;2023-03-23T02:18:37;5.23;;;4.50;;
3875;SDS011;1953;51.222;6.624;2023-03-23T02:23:47;7.53;;;5.03;;
3875;SDS011;1953;51.222;6.624;2023-03-23T02:33:47;5.13;;;4.50;;
3875;SDS011;1953;51.222;6.624;2023-03-23T02:38:32;5.23;;;4.70;;
3875;SDS011;1953;51.222;6.624;2023-03-23T02:43:21;5.70;;;4.40;;
3875;SDS011;1953;51.222;6.624;2023-03-23T02:48:07;4.93;;;4.43;;
3875;SDS011;1953;51.222;6.624;2023-03-23T02:52:53;4.90;;;4.33;;
3875;SDS011;1953;51.222;6.624;2023-03-23T02:57:37;7.30;;;4.10;;
3875;SDS011;1953;51.222;6.624;2023-03-23T03:02:21;6.07;;;3.80;;
3875;SDS011;1953;51.222;6.624;2023-03-23T03:07:07;9.47;;;3.70;;
3875;SDS011;1953;51.222;6.624;2023-03-23T03:12:07;4.40;;;3.70;;
3875;SDS011;1953;51.222;6.624;2023-03-23T03:16:56;4.00;;;3.47;;
3875;SDS011;1953;51.222;6.624;2023-03-23T03:21:43;7.53;;;3.23;;
3875;SDS011;1953;51.222;6.624;2023-03-23T03:26:29;3.67;;;3.10;;
3875;SDS011;1953;51.222;6.624;2023-03-23T03:31:17;3.53;;;3.23;;
3875;SDS011;1953;51.222;6.624;2023-03-23T03:36:02;3.77;;;3.13;;
3875;SDS011;1953;51.222;6.624;2023-03-23T03:40:49;3.73;;;3.17;;
3875;SDS011;1953;51.222;6.624;2023-03-23T03:45:32;3.70;;;3.33;;
3875;SDS011;1953;51.222;6.624;2023-03-23T03:50:16;4.90;;;3.60;;
3875;SDS011;1953;51.222;6.624;2023-03-23T03:54:59;4.13;;;3.17;;
3875;SDS011;1953;51.222;6.624;2023-03-23T03:59:41;3.80;;;3.23;;
3875;SDS011;1953;51.222;6.624;2023-03-23T04:04:24;3.37;;;3.07;;
3875;SDS011;1953;51.222;6.624;2023-03-23T04:09:09;4.73;;;3.53;;
3875;SDS011;1953;51.222;6.624;2023-03-23T04:13:52;3.50;;;3.20;;
3875;SDS011;1953;51.222;6.624;2023-03-23T04:18:35;3.80;;;3.40;;
3875;SDS011;1953;51.222;6.624;2023-03-23T04:23:18;4.03;;;3.43;;
3875;SDS011;1953;51.222;6.624;2023-03-23T04:28:04;3.77;;;3.43;;
3875;SDS011;1953;51.222;6.624;2023-03-23T04:32:47;4.90;;;3.90;;
3875;SDS011;1953;51.222;6.624;2023-03-23T04:37:32;4.43;;;3.73;;
3875;SDS011;1953;51.222;6.624;2023-03-23T04:42:15;3.83;;;3.50;;
3875;SDS011;1953;51.222;6.624;2023-03-23T04:46:59;5.60;;;3.37;;
3875;SDS011;1953;51.222;6.624;2023-03-23T04:51:42;4.53;;;3.37;;
3875;SDS011;1953;51.222;6.624;2023-03-23T04:56:25;4.20;;;3.80;;
3875;SDS011;1953;51.222;6.624;2023-03-23T05:01:07;8.13;;;4.30;;
3875;SDS011;1953;51.222;6.624;2023-03-23T05:05:51;5.20;;;3.70;;
3875;SDS011;1953;51.222;6.624;2023-03-23T05:10:34;4.17;;;3.40;;
3875;SDS011;1953;51.222;6.624;2023-03-23T05:15:16;4.63;;;3.90;;
3875;SDS011;1953;51.222;6.624;2023-03-23T05:19:59;8.87;;;3.93;;
3875;SDS011;1953;51.222;6.624;2023-03-23T05:24:44;5.30;;;3.97;;
3875;SDS011;1953;51.222;6.624;2023-03-23T05:29:27;5.70;;;4.30;;
3875;SDS011;1953;51.222;6.624;2023-03-23T05:34:10;6.37;;;4.20;;
3875;SDS011;1953;51.222;6.624;2023-03-23T05:38:53;4.73;;;3.60;;
3875;SDS011;1953;51.222;6.624;2023-03-23T05:43:37;4.73;;;3.80;;
3875;SDS011;1953;51.222;6.624;2023-03-23T05:48:20;6.70;;;4.53;;
3875;SDS011;1953;51.222;6.624;2023-03-23T05:53:02;4.70;;;3.67;;
3875;SDS011;1953;51.222;6.624;2023-03-23T05:57:45;4.10;;;3.70;;
3875;SDS011;1953;51.222;6.624;2023-03-23T06:02:29;5.57;;;3.90;;
3875;SDS011;1953;51.222;6.624;2023-03-23T06:07:11;5.37;;;4.00;;
3875;SDS011;1953;51.222;6.624;2023-03-23T06:11:55;5.60;;;3.50;;
3875;SDS011;1953;51.222;6.624;2023-03-23T06:16:38;6.40;;;3.70;;
3875;SDS011;1953;51.222;6.624;2023-03-23T06:21:22;4.20;;;3.30;;
3875;SDS011;1953;51.222;6.624;2023-03-23T06:26:05;8.83;;;3.67;;
3875;SDS011;1953;51.222;6.624;2023-03-23T06:30:49;5.37;;;3.80;;
3875;SDS011;1953;51.222;6.624;2023-03-23T06:35:33;11.60;;;3.77;;
3875;SDS011;1953;51.222;6.624;2023-03-23T06:40:17;8.10;;;3.40;;
3875;SDS011;1953;51.222;6.624;2023-03-23T06:45:00;5.17;;;3.10;;
3875;SDS011;1953;51.222;6.624;2023-03-23T06:49:43;6.07;;;3.40;;
3875;SDS011;1953;51.222;6.624;2023-03-23T06:54:25;7.40;;;3.07;;
3875;SDS011;1953;51.222;6.624;2023-03-23T06:59:09;4.87;;;3.07;;
3875;SDS011;1953;51.222;6.624;2023-03-23T07:03:53;3.80;;;2.80;;
3875;SDS011;1953;51.222;6.624;2023-03-23T07:08:36;3.77;;;2.43;;
3875;SDS011;1953;51.222;6.624;2023-03-23T07:13:18;3.07;;;2.77;;
3875;SDS011;1953;51.222;6.624;2023-03-23T07:18:03;6.33;;;2.90;;
3875;SDS011;1953;51.222;6.624;2023-03-23T07:22:45;4.40;;;3.00;;
3875;SDS011;1953;51.222;6.624;2023-03-23T07:27:28;4.00;;;2.77;;
3875;SDS011;1953;51.222;6.624;2023-03-23T07:32:10;5.67;;;2.33;;
3875;SDS011;1953;51.222;6.624;2023-03-23T07:36:55;4.00;;;2.30;;
3875;SDS011;1953;51.222;6.624;2023-03-23T07:41:37;4.77;;;2.63;;
3875;SDS011;1953;51.222;6.624;2023-03-23T07:46:20;4.50;;;2.33;;
3875;SDS011;1953;51.222;6.624;2023-03-23T07:51:03;5.30;;;2.30;;
3875;SDS011;1953;51.222;6.624;2023-03-23T07:55:47;7.47;;;2.73;;
3875;SDS011;1953;51.222;6.624;2023-03-23T08:00:29;7.10;;;2.70;;
3875;SDS011;1953;51.222;6.624;2023-03-23T08:05:13;8.60;;;2.73;;
3875;SDS011;1953;51.222;6.624;2023-03-23T08:09:56;6.63;;;2.50;;
3875;SDS011;1953;51.222;6.624;2023-03-23T08:14:40;6.03;;;2.77;;
3875;SDS011;1953;51.222;6.624;2023-03-23T08:19:23;2.77;;;1.97;;
3875;SDS011;1953;51.222;6.624;2023-03-23T08:24:06;4.07;;;2.20;;
3875;SDS011;1953;51.222;6.624;2023-03-23T08:28:48;5.27;;;2.70;;
3875;SDS011;1953;51.222;6.624;2023-03-23T08:33:32;4.80;;;2.63;;
3875;SDS011;1953;51.222;6.624;2023-03-23T08:38:15;6.20;;;2.43;;
3875;SDS011;1953;51.222;6.624;2023-03-23T08:42:58;6.97;;;2.80;;
3875;SDS011;1953;51.222;6.624;2023-03-23T08:47:40;4.73;;;2.70;;
3875;SDS011;1953;51.222;6.624;2023-03-23T08:52:24;5.77;;;2.80;;
3875;SDS011;1953;51.222;6.624;2023-03-23T08:57:07;3.23;;;1.90;;
3875;SDS011;1953;51.222;6.624;2023-03-23T09:01:49;4.63;;;2.30;;
3875;SDS011;1953;51.222;6.624;2023-03-23T09:06:32;7.10;;;2.80;;
3875;SDS011;1953;51.222;6.624;2023-03-23T09:11:16;7.80;;;2.47;;
3875;SDS011;1953;51.222;6.624;2023-03-23T09:15:59;2.03;;;1.50;;
3875;SDS011;1953;51.222;6.624;2023-03-23T09:20:42;3.70;;;2.50;;
3875;SDS011;1953;51.222;6.624;2023-03-23T09:25:25;3.70;;;2.10;;
3875;SDS011;1953;51.222;6.624;2023-03-23T09:44:24;8.10;;;2.67;;
3875;SDS011;1953;51.222;6.624;2023-03-23T09:49:15;4.90;;;1.60;;
3875;SDS011;1953;51.222;6.624;2023-03-23T09:54:03;2.60;;;1.20;;
3875;SDS011;1953;51.222;6.624;2023-03-23T09:58:51;3.10;;;0.97;;
3875;SDS011;1953;51.222;6.624;2023-03-23T10:03:41;1.90;;;1.10;;
3875;SDS011;1953;51.222;6.624;2023-03-23T10:08:25;1.63;;;1.20;;
3875;SDS011;1953;51.222;6.624;2023-03-23T10:13:13;0.97;;;0.87;;
3875;SDS011;1953;51.222;6.624;2023-03-23T10:18:02;1.90;;;1.07;;
3875;SDS011;1953;51.222;6.624;2023-03-23T10:22:49;1.20;;;1.10;;
3875;SDS011;1953;51.222;6.624;2023-03-23T10:27:37;3.53;;;1.60;;
3875;SDS011;1953;51.222;6.624;2023-03-23T10:32:36;2.13;;;1.30;;
3875;SDS011;1953;51.222;6.624;2023-03-23T10:37:25;1.53;;;1.13;;
3875;SDS011;1953;51.222;6.624;2023-03-23T10:42:20;2.20;;;1.30;;
3875;SDS011;1953;51.222;6.624;2023-03-23T10:47:05;1.37;;;1.27;;
3875;SDS011;1953;51.222;6.624;2023-03-23T10:51:50;2.53;;;1.50;;
3875;SDS011;1953;51.222;6.624;2023-03-23T10:56:40;2.90;;;1.60;;
3875;SDS011;1953;51.222;6.624;2023-03-23T11:01:30;4.80;;;2.00;;
3875;SDS011;1953;51.222;6.624;2023-03-23T11:06:19;2.30;;;1.73;;
3875;SDS011;1953;51.222;6.624;2023-03-23T11:11:10;7.23;;;1.70;;
3875;SDS011;1953;51.222;6.624;2023-03-23T11:15:56;4.93;;;2.10;;
3875;SDS011;1953;51.222;6.624;2023-03-23T11:20:42;2.33;;;1.90;;
3875;SDS011;1953;51.222;6.624;2023-03-23T11:25:28;2.87;;;2.00;;
3875;SDS011;1953;51.222;6.624;2023-03-23T11:30:15;4.23;;;1.93;;
3875;SDS011;1953;51.222;6.624;2023-03-23T11:35:04;3.80;;;2.37;;
3875;SDS011;1953;51.222;6.624;2023-03-23T11:39:55;4.00;;;2.60;;
3875;SDS011;1953;51.222;6.624;2023-03-23T11:44:40;3.30;;;2.73;;
3875;SDS011;1953;51.222;6.624;2023-03-23T11:49:35;3.80;;;3.03;;
3875;SDS011;1953;51.222;6.624;2023-03-23T11:54:26;4.80;;;3.10;;
3875;SDS011;1953;51.222;6.624;2023-03-23T11:59:15;3.97;;;3.27;;
3875;SDS011;1953;51.222;6.624;2023-03-23T12:04:04;4.70;;;3.23;;
3875;SDS011;1953;51.222;6.624;2023-03-23T12:11:24;3.50;;;2.93;;
3875;SDS011;1953;51.222;6.624;2023-03-23T12:16:15;7.13;;;3.47;;
3875;SDS011;1953;51.222;6.624;2023-03-23T12:21:06;4.80;;;3.43;;
3875;SDS011;1953;51.222;6.624;2023-03-23T12:26:07;7.43;;;3.50;;
3875;SDS011;1953;51.222;6.624;2023-03-23T12:31:05;4.80;;;4.00;;
3875;SDS011;1953;51.222;6.624;2023-03-23T12:36:00;9.13;;;5.40;;
3875;SDS011;1953;51.222;6.624;2023-03-23T12:40:54;5.57;;;4.33;;
3875;SDS011;1953;51.222;6.624;2023-03-23T12:45:47;4.87;;;4.03;;
3875;SDS011;1953;51.222;6.624;2023-03-23T12:50:48;6.63;;;3.87;;
3875;SDS011;1953;51.222;6.624;2023-03-23T12:55:44;4.67;;;3.67;;
3875;SDS011;1953;51.222;6.624;2023-03-23T13:00:30;3.73;;;3.40;;
3875;SDS011;1953;51.222;6.624;2023-03-23T13:05:26;4.30;;;3.40;;
3875;SDS011;1953;51.222;6.624;2023-03-23T13:10:20;4.83;;;3.90;;
3875;SDS011;1953;51.222;6.624;2023-03-23T13:15:10;4.80;;;3.90;;
3875;SDS011;1953;51.222;6.624;2023-03-23T13:20:20;6.33;;;4.20;;
3875;SDS011;1953;51.222;6.624;2023-03-23T13:25:18;4.17;;;3.70;;
3875;SDS011;1953;51.222;6.624;2023-03-23T13:30:19;5.43;;;4.37;;
3875;SDS011;1953;51.222;6.624;2023-03-23T13:35:11;4.13;;;3.73;;
3875;SDS011;1953;51.222;6.624;2023-03-23T13:39:56;4.90;;;4.40;;
3875;SDS011;1953;51.222;6.624;2023-03-23T13:45:18;6.53;;;4.63;;
3875;SDS011;1953;51.222;6.624;2023-03-23T13:50:09;7.97;;;4.70;;
3875;SDS011;1953;51.222;6.624;2023-03-23T13:55:08;9.93;;;5.20;;
3875;SDS011;1953;51.222;6.624;2023-03-23T14:00:08;6.70;;;5.90;;
3875;SDS011;1953;51.222;6.624;2023-03-23T14:04:56;8.23;;;5.20;;
3875;SDS011;1953;51.222;6.624;2023-03-23T14:09:39;10.33;;;4.83;;
3875;SDS011;1953;51.222;6.624;2023-03-23T14:25:32;6.13;;;2.27;;
3875;SDS011;1953;51.222;6.624;2023-03-23T14:30:15;3.13;;;2.30;;
3875;SDS011;1953;51.222;6.624;2023-03-23T14:35:03;5.27;;;3.23;;
3875;SDS011;1953;51.222;6.624;2023-03-23T14:39:48;4.80;;;2.57;;
3875;SDS011;1953;51.222;6.624;2023-03-23T14:44:35;3.90;;;1.90;;
3875;SDS011;1953;51.222;6.624;2023-03-23T14:49:24;6.20;;;2.80;;
3875;SDS011;1953;51.222;6.624;2023-03-23T14:54:11;7.13;;;2.43;;
3875;SDS011;1953;51.222;6.624;2023-03-23T14:58:53;6.60;;;3.20;;
3875;SDS011;1953;51.222;6.624;2023-03-23T15:03:46;4.70;;;2.80;;
3875;SDS011;1953;51.222;6.624;2023-03-23T15:08:33;5.63;;;2.93;;
3875;SDS011;1953;51.222;6.624;2023-03-23T15:13:16;5.77;;;2.90;;
3875;SDS011;1953;51.222;6.624;2023-03-23T15:17:59;5.00;;;2.67;;
3875;SDS011;1953;51.222;6.624;2023-03-23T15:22:46;4.97;;;2.70;;
3875;SDS011;1953;51.222;6.624;2023-03-23T15:27:29;6.23;;;2.97;;
3875;SDS011;1953;51.222;6.624;2023-03-23T15:32:19;5.73;;;2.40;;
3875;SDS011;1953;51.222;6.624;2023-03-23T15:37:04;6.07;;;2.30;;
3875;SDS011;1953;51.222;6.624;2023-03-23T15:42:00;6.60;;;2.60;;
3875;SDS011;1953;51.222;6.624;2023-03-23T15:46:49;5.80;;;2.75;;
3875;SDS011;1953;51.222;6.624;2023-03-23T15:51:25;5.67;;;2.43;;
3875;SDS011;1953;51.222;6.624;2023-03-23T15:56:09;9.63;;;3.07;;
3875;SDS011;1953;51.222;6.624;2023-03-23T16:00:54;4.80;;;3.33;;
3875;SDS011;1953;51.222;6.624;2023-03-23T16:05:38;12.03;;;4.50;;
3875;SDS011;1953;51.222;6.624;2023-03-23T16:10:21;5.73;;;3.17;;
3875;SDS011;1953;51.222;6.624;2023-03-23T16:15:05;6.20;;;2.90;;
3875;SDS011;1953;51.222;6.624;2023-03-23T16:19:50;6.97;;;2.97;;
3875;SDS011;1953;51.222;6.624;2023-03-23T16:24:32;5.10;;;2.77;;
3875;SDS011;1953;51.222;6.624;2023-03-23T16:29:15;6.43;;;3.30;;
3875;SDS011;1953;51.222;6.624;2023-03-23T16:33:58;8.00;;;3.47;;
3875;SDS011;1953;51.222;6.624;2023-03-23T16:38:42;9.13;;;2.80;;
3875;SDS011;1953;51.222;6.624;2023-03-23T16:43:24;6.30;;;2.73;;
3875;SDS011;1953;51.222;6.624;2023-03-23T16:48:07;8.03;;;2.93;;
3875;SDS011;1953;51.222;6.624;2023-03-23T16:52:50;6.63;;;2.80;;
3875;SDS011;1953;51.222;6.624;2023-03-23T16:57:34;4.70;;;2.90;;
3875;SDS011;1953;51.222;6.624;2023-03-23T17:02:17;5.70;;;3.10;;
3875;SDS011;1953;51.222;6.624;2023-03-23T17:07:00;6.70;;;2.77;;
3875;SDS011;1953;51.222;6.624;2023-03-23T17:11:42;8.90;;;2.73;;
3875;SDS011;1953;51.222;6.624;2023-03-23T17:16:26;7.23;;;2.30;;
3875;SDS011;1953;51.222;6.624;2023-03-23T17:21:09;5.57;;;2.40;;
3875;SDS011;1953;51.222;6.624;2023-03-23T17:25:51;10.23;;;2.80;;
3875;SDS011;1953;51.222;6.624;2023-03-23T17:30:34;8.63;;;3.47;;
3875;SDS011;1953;51.222;6.624;2023-03-23T17:35:18;4.50;;;2.90;;
3875;SDS011;1953;51.222;6.624;2023-03-23T17:40:00;7.97;;;3.03;;
3875;SDS011;1953;51.222;6.624;2023-03-23T17:44:44;7.87;;;3.77;;
3875;SDS011;1953;51.222;6.624;2023-03-23T17:49:26;11.57;;;2.83;;
3875;SDS011;1953;51.222;6.624;2023-03-23T17:54:11;6.70;;;2.80;;
3875;SDS011;1953;51.222;6.624;2023-03-23T17:58:53;6.83;;;3.20;;
3875;SDS011;1953;51.222;6.624;2023-03-23T18:03:36;8.87;;;3.37;;
3875;SDS011;1953;51.222;6.624;2023-03-23T18:08:18;4.90;;;2.77;;
3875;SDS011;1953;51.222;6.624;2023-03-23T18:13:02;12.53;;;3.10;;
3875;SDS011;1953;51.222;6.624;2023-03-23T18:17:46;8.10;;;3.33;;
3875;SDS011;1953;51.222;6.624;2023-03-23T18:22:30;6.67;;;3.40;;
3875;SDS011;1953;51.222;6.624;2023-03-23T18:27:13;6.43;;;3.20;;
3875;SDS011;1953;51.222;6.624;2023-03-23T18:31:57;6.03;;;2.90;;
3875;SDS011;1953;51.222;6.624;2023-03-23T18:36:39;9.33;;;2.90;;
3875;SDS011;1953;51.222;6.624;2023-03-23T18:41:21;11.10;;;2.93;;
3875;SDS011;1953;51.222;6.624;2023-03-23T18:46:05;6.77;;;3.10;;
3875;SDS011;1953;51.222;6.624;2023-03-23T18:50:51;10.30;;;3.37;;
3875;SDS011;1953;51.222;6.624;2023-03-23T18:54:54;10.63;;;3.90;;
3875;SDS011;1953;51.222;6.624;2023-03-23T18:59:37;14.00;;;4.13;;
3875;SDS011;1953;51.222;6.624;2023-03-23T19:04:19;13.60;;;4.30;;
3875;SDS011;1953;51.222;6.624;2023-03-23T19:09:04;7.73;;;3.80;;
3875;SDS011;1953;51.222;6.624;2023-03-23T19:13:46;15.10;;;4.70;;
3875;SDS011;1953;51.222;6.624;2023-03-23T19:18:29;8.63;;;4.63;;
3875;SDS011;1953;51.222;6.624;2023-03-23T19:23:12;9.00;;;5.30;;
3875;SDS011;1953;51.222;6.624;2023-03-23T19:27:55;10.50;;;5.53;;
3875;SDS011;1953;51.222;6.624;2023-03-23T19:32:38;7.20;;;4.93;;
3875;SDS011;1953;51.222;6.624;2023-03-23T19:37:20;9.17;;;3.97;;
3875;SDS011;1953;51.222;6.624;2023-03-23T19:42:03;7.50;;;3.80;;
3875;SDS011;1953;51.222;6.624;2023-03-23T19:46:47;11.50;;;3.80;;
3875;SDS011;1953;51.222;6.624;2023-03-23T19:51:30;7.87;;;3.70;;
3875;SDS011;1953;51.222;6.624;2023-03-23T19:56:13;7.50;;;3.20;;
3875;SDS011;1953;51.222;6.624;2023-03-23T20:00:58;10.43;;;3.60;;
3875;SDS011;1953;51.222;6.624;2023-03-23T20:05:43;7.43;;;3.40;;
3875;SDS011;1953;51.222;6.624;2023-03-23T20:10:26;6.97;;;3.03;;
3875;SDS011;1953;51.222;6.624;2023-03-23T20:15:08;12.30;;;3.70;;
3875;SDS011;1953;51.222;6.624;2023-03-23T20:19:51;6.17;;;3.30;;
3875;SDS011;1953;51.222;6.624;2023-03-23T20:24:35;4.10;;;2.67;;
3875;SDS011;1953;51.222;6.624;2023-03-23T20:29:17;8.13;;;2.93;;
3875;SDS011;1953;51.222;6.624;2023-03-23T20:34:00;4.93;;;2.90;;
3875;SDS011;1953;51.222;6.624;2023-03-23T20:38:46;9.63;;;2.67;;
3875;SDS011;1953;51.222;6.624;2023-03-23T20:43:30;8.67;;;3.43;;
3875;SDS011;1953;51.222;6.624;2023-03-23T20:48:13;5.97;;;2.50;;
3875;SDS011;1953;51.222;6.624;2023-03-23T20:52:56;4.80;;;2.37;;
3875;SDS011;1953;51.222;6.624;2023-03-23T20:57:39;5.53;;;2.73;;
3875;SDS011;1953;51.222;6.624;2023-03-23T21:02:23;5.07;;;2.30;;
3875;SDS011;1953;51.222;6.624;2023-03-23T21:07:09;7.53;;;3.07;;
3875;SDS011;1953;51.222;6.624;2023-03-23T21:11:52;7.80;;;2.80;;
3875;SDS011;1953;51.222;6.624;2023-03-23T21:16:35;5.00;;;2.70;;
3875;SDS011;1953;51.222;6.624;2023-03-23T21:21:18;4.93;;;2.50;;
3875;SDS011;1953;51.222;6.624;2023-03-23T21:26:03;5.13;;;2.77;;
3875;SDS011;1953;51.222;6.624;2023-03-23T21:30:47;4.60;;;2.93;;
3875;SDS011;1953;51.222;6.624;2023-03-23T21:35:32;4.33;;;2.67;;
3875;SDS011;1953;51.222;6.624;2023-03-23T21:40:16;9.97;;;2.90;;
3875;SDS011;1953;51.222;6.624;2023-03-23T21:44:58;4.70;;;2.70;;
3875;SDS011;1953;51.222;6.624;2023-03-23T21:49:42;5.37;;;2.67;;
3875;SDS011;1953;51.222;6.624;2023-03-23T21:54:25;4.50;;;2.77;;
3875;SDS011;1953;51.222;6.624;2023-03-23T21:59:11;6.07;;;2.87;;
3875;SDS011;1953;51.222;6.624;2023-03-23T22:03:53;4.97;;;2.73;;
3875;SDS011;1953;51.222;6.624;2023-03-23T22:08:36;4.77;;;2.10;;
3875;SDS011;1953;51.222;6.624;2023-03-23T22:13:20;3.90;;;2.80;;
3875;SDS011;1953;51.222;6.624;2023-03-23T22:18:04;3.27;;;2.50;;
3875;SDS011;1953;51.222;6.624;2023-03-23T22:22:46;5.17;;;2.63;;
3875;SDS011;1953;51.222;6.624;2023-03-23T22:27:29;3.90;;;2.50;;
3875;SDS011;1953;51.222;6.624;2023-03-23T22:32:11;3.83;;;2.07;;
3875;SDS011;1953;51.222;6.624;2023-03-23T22:36:55;6.43;;;2.43;;
3875;SDS011;1953;51.222;6.624;2023-03-23T22:41:39;3.73;;;2.50;;
3875;SDS011;1953;51.222;6.624;2023-03-23T22:46:22;3.97;;;2.80;;
3875;SDS011;1953;51.222;6.624;2023-03-23T22:51:06;4.33;;;2.60;;
3875;SDS011;1953;51.222;6.624;2023-03-23T22:55:52;3.60;;;2.30;;
3875;SDS011;1953;51.222;6.624;2023-03-23T23:00:36;3.97;;;2.23;;
3875;SDS011;1953;51.222;6.624;2023-03-23T23:05:19;4.33;;;2.17;;
3875;SDS011;1953;51.222;6.624;2023-03-23T23:10:02;5.87;;;2.53;;
3875;SDS011;1953;51.222;6.624;2023-03-23T23:14:46;4.00;;;2.37;;
3875;SDS011;1953;51.222;6.624;2023-03-23T23:19:29;6.30;;;2.43;;
3875;SDS011;1953;51.222;6.624;2023-03-23T23:24:13;2.43;;;2.20;;
3875;SDS011;1953;51.222;6.624;2023-03-23T23:28:55;3.03;;;2.17;;
3875;SDS011;1953;51.222;6.624;2023-03-23T23:33:39;4.33;;;2.60;;
3875;SDS011;1953;51.222;6.624;2023-03-23T23:38:22;3.90;;;2.53;;
3875;SDS011;1953;51.222;6.624;2023-03-23T23:43:04;5.80;;;2.63;;
3875;SDS011;1953;51.222;6.624;2023-03-23T23:47:47;3.20;;;2.50;;
3875;SDS011;1953;51.222;6.624;2023-03-23T23:52:31;2.50;;;2.30;;
3875;SDS011;1953;51.222;6.624;2023-03-23T23:57:14;2.80;;;2.60;;
